Westport, California
Current Conditions -  °F | °C
As of 11:23 AM on Thursday 23 Oct 2014 (Local Time) from KUKI Reporting Station
Light Rain Light Rain  
Wind Chill: 59°   Ceiling: 2500
Heat Index: 59°   Visibility: 9mi
Dew Point: 55°   Wind: 0mph
Humidity: 87%   Direction: NA
Pressure: 30.08"   Gusts: NA
Location:  39.64°N, 123.79°W
Report Text: KUKI 231823Z AUTO 00000KT 9SM -RA FEW007 BKN025 OVC039 15/13 A3008 RMK AO2 P0001 T01500128
Loading
Personal Weather Stations






























Interactive Weather Map
Tropical Storm Tracking
New forecast layout! Learn more

10-Day Weather Forecast

Advertisements
Track Severe Weather on mobile